sensor_id;sensor_type;location;lat;lon;timestamp;P1;durP1;ratioP1;P2;durP2;ratioP2
7169;SDS011;3626;42.656;23.312;2023-10-08T00:00:02;19.64;;;6.64;;
7169;SDS011;3626;42.656;23.312;2023-10-08T00:00:29;19.35;;;6.95;;
7169;SDS011;3626;42.656;23.312;2023-10-08T00:00:48;17.00;;;7.05;;
7169;SDS011;3626;42.656;23.312;2023-10-08T00:00:54;14.40;;;6.46;;
7169;SDS011;3626;42.656;23.312;2023-10-08T00:01:02;15.37;;;6.33;;
7169;SDS011;3626;42.656;23.312;2023-10-08T00:01:08;15.22;;;6.23;;
7169;SDS011;3626;42.656;23.312;2023-10-08T00:01:17;14.77;;;5.93;;
7169;SDS011;3626;42.656;23.312;2023-10-08T00:01:23;14.23;;;5.60;;
7169;SDS011;3626;42.656;23.312;2023-10-08T00:01:30;13.38;;;5.50;;
7169;SDS011;3626;42.656;23.312;2023-10-08T00:01:38;13.40;;;5.73;;
7169;SDS011;3626;42.656;23.312;2023-10-08T00:01:48;14.75;;;6.00;;
7169;SDS011;3626;42.656;23.312;2023-10-08T00:01:56;16.03;;;6.30;;
7169;SDS011;3626;42.656;23.312;2023-10-08T00:02:01;15.00;;;6.53;;
7169;SDS011;3626;42.656;23.312;2023-10-08T00:02:11;15.30;;;6.87;;
7169;SDS011;3626;42.656;23.312;2023-10-08T00:02:19;15.72;;;7.14;;
7169;SDS011;3626;42.656;23.312;2023-10-08T00:02:27;17.00;;;7.47;;
7169;SDS011;3626;42.656;23.312;2023-10-08T00:02:33;17.73;;;7.70;;
7169;SDS011;3626;42.656;23.312;2023-10-08T00:02:38;17.90;;;7.80;;
7169;SDS011;3626;42.656;23.312;2023-10-08T00:02:44;17.13;;;7.78;;
7169;SDS011;3626;42.656;23.312;2023-10-08T00:02:50;16.47;;;7.70;;
7169;SDS011;3626;42.656;23.312;2023-10-08T00:02:57;17.07;;;7.52;;
7169;SDS011;3626;42.656;23.312;2023-10-08T00:03:03;16.90;;;7.37;;
7169;SDS011;3626;42.656;23.312;2023-10-08T00:03:10;16.47;;;7.10;;
7169;SDS011;3626;42.656;23.312;2023-10-08T00:03:16;15.73;;;6.78;;
7169;SDS011;3626;42.656;23.312;2023-10-08T00:03:22;14.43;;;6.47;;
7169;SDS011;3626;42.656;23.312;2023-10-08T00:03:34;13.15;;;6.07;;
7169;SDS011;3626;42.656;23.312;2023-10-08T00:03:41;12.60;;;5.70;;
7169;SDS011;3626;42.656;23.312;2023-10-08T00:03:53;12.75;;;5.61;;
7169;SDS011;3626;42.656;23.312;2023-10-08T00:04:03;10.70;;;5.07;;
7169;SDS011;3626;42.656;23.312;2023-10-08T00:04:09;10.87;;;4.90;;
7169;SDS011;3626;42.656;23.312;2023-10-08T00:04:16;11.40;;;5.20;;
7169;SDS011;3626;42.656;23.312;2023-10-08T00:04:23;11.97;;;5.30;;
7169;SDS011;3626;42.656;23.312;2023-10-08T00:04:29;13.32;;;5.38;;
7169;SDS011;3626;42.656;23.312;2023-10-08T00:04:35;16.03;;;5.53;;
7169;SDS011;3626;42.656;23.312;2023-10-08T00:04:42;16.83;;;5.63;;
7169;SDS011;3626;42.656;23.312;2023-10-08T00:04:49;17.04;;;5.60;;
7169;SDS011;3626;42.656;23.312;2023-10-08T00:04:56;17.03;;;5.73;;
7169;SDS011;3626;42.656;23.312;2023-10-08T00:05:03;19.84;;;5.90;;
7169;SDS011;3626;42.656;23.312;2023-10-08T00:05:09;19.74;;;5.90;;
7169;SDS011;3626;42.656;23.312;2023-10-08T00:05:15;19.70;;;5.75;;
7169;SDS011;3626;42.656;23.312;2023-10-08T00:05:21;19.95;;;5.55;;
7169;SDS011;3626;42.656;23.312;2023-10-08T00:05:27;19.95;;;5.57;;
7169;SDS011;3626;42.656;23.312;2023-10-08T00:05:35;16.30;;;5.40;;
7169;SDS011;3626;42.656;23.312;2023-10-08T00:05:41;15.45;;;5.22;;
7169;SDS011;3626;42.656;23.312;2023-10-08T00:05:47;15.75;;;5.20;;
7169;SDS011;3626;42.656;23.312;2023-10-08T00:05:54;15.00;;;4.93;;
7169;SDS011;3626;42.656;23.312;2023-10-08T00:06:02;12.84;;;4.88;;
7169;SDS011;3626;42.656;23.312;2023-10-08T00:06:11;12.90;;;4.90;;
7169;SDS011;3626;42.656;23.312;2023-10-08T00:06:20;12.57;;;4.63;;
7169;SDS011;3626;42.656;23.312;2023-10-08T00:06:26;12.00;;;4.70;;
7169;SDS011;3626;42.656;23.312;2023-10-08T00:06:33;13.07;;;4.83;;
7169;SDS011;3626;42.656;23.312;2023-10-08T00:06:38;13.52;;;5.00;;
7169;SDS011;3626;42.656;23.312;2023-10-08T00:06:44;13.90;;;5.15;;
7169;SDS011;3626;42.656;23.312;2023-10-08T00:06:50;13.65;;;5.50;;
7169;SDS011;3626;42.656;23.312;2023-10-08T00:06:57;13.38;;;5.76;;
7169;SDS011;3626;42.656;23.312;2023-10-08T00:07:03;13.80;;;5.93;;
7169;SDS011;3626;42.656;23.312;2023-10-08T00:07:12;14.06;;;6.06;;
7169;SDS011;3626;42.656;23.312;2023-10-08T00:07:19;13.88;;;6.24;;
7169;SDS011;3626;42.656;23.312;2023-10-08T00:07:26;14.40;;;6.37;;
7169;SDS011;3626;42.656;23.312;2023-10-08T00:07:33;14.32;;;6.50;;
7169;SDS011;3626;42.656;23.312;2023-10-08T00:07:38;13.93;;;6.40;;
7169;SDS011;3626;42.656;23.312;2023-10-08T00:07:47;13.74;;;6.26;;
7169;SDS011;3626;42.656;23.312;2023-10-08T00:07:53;13.60;;;6.07;;
7169;SDS011;3626;42.656;23.312;2023-10-08T00:08:01;13.60;;;6.00;;
7169;SDS011;3626;42.656;23.312;2023-10-08T00:08:06;13.13;;;5.82;;
7169;SDS011;3626;42.656;23.312;2023-10-08T00:08:13;14.07;;;5.90;;
7169;SDS011;3626;42.656;23.312;2023-10-08T00:08:21;14.17;;;6.00;;
7169;SDS011;3626;42.656;23.312;2023-10-08T00:08:28;13.80;;;5.98;;
7169;SDS011;3626;42.656;23.312;2023-10-08T00:08:34;13.70;;;5.87;;
7169;SDS011;3626;42.656;23.312;2023-10-08T00:08:39;13.60;;;5.87;;
7169;SDS011;3626;42.656;23.312;2023-10-08T00:08:45;13.00;;;5.80;;
7169;SDS011;3626;42.656;23.312;2023-10-08T00:08:52;12.80;;;5.75;;
7169;SDS011;3626;42.656;23.312;2023-10-08T00:09:04;12.82;;;5.72;;
7169;SDS011;3626;42.656;23.312;2023-10-08T00:09:13;12.27;;;5.74;;
7169;SDS011;3626;42.656;23.312;2023-10-08T00:09:20;11.40;;;5.47;;
7169;SDS011;3626;42.656;23.312;2023-10-08T00:09:26;10.95;;;5.30;;
7169;SDS011;3626;42.656;23.312;2023-10-08T00:09:31;11.37;;;5.30;;
7169;SDS011;3626;42.656;23.312;2023-10-08T00:09:40;14.47;;;5.43;;
7169;SDS011;3626;42.656;23.312;2023-10-08T00:09:47;16.67;;;5.60;;
7169;SDS011;3626;42.656;23.312;2023-10-08T00:09:53;18.86;;;5.76;;
7169;SDS011;3626;42.656;23.312;2023-10-08T00:10:00;18.64;;;5.64;;
7169;SDS011;3626;42.656;23.312;2023-10-08T00:10:07;18.44;;;5.58;;
7169;SDS011;3626;42.656;23.312;2023-10-08T00:10:14;18.80;;;5.83;;
7169;SDS011;3626;42.656;23.312;2023-10-08T00:10:20;18.70;;;5.80;;
7169;SDS011;3626;42.656;23.312;2023-10-08T00:10:34;18.34;;;5.76;;
7169;SDS011;3626;42.656;23.312;2023-10-08T00:10:40;16.07;;;5.69;;
7169;SDS011;3626;42.656;23.312;2023-10-08T00:10:46;13.93;;;5.50;;
7169;SDS011;3626;42.656;23.312;2023-10-08T00:10:52;12.48;;;5.43;;
7169;SDS011;3626;42.656;23.312;2023-10-08T00:10:58;11.87;;;5.30;;
7169;SDS011;3626;42.656;23.312;2023-10-08T00:11:11;11.70;;;5.15;;
7169;SDS011;3626;42.656;23.312;2023-10-08T00:11:19;12.73;;;5.18;;
7169;SDS011;3626;42.656;23.312;2023-10-08T00:11:27;14.10;;;5.28;;
7169;SDS011;3626;42.656;23.312;2023-10-08T00:11:34;13.80;;;5.22;;
7169;SDS011;3626;42.656;23.312;2023-10-08T00:11:41;13.27;;;5.20;;
7169;SDS011;3626;42.656;23.312;2023-10-08T00:11:48;12.40;;;5.10;;
7169;SDS011;3626;42.656;23.312;2023-10-08T00:11:58;13.43;;;5.40;;
7169;SDS011;3626;42.656;23.312;2023-10-08T00:12:06;14.20;;;5.65;;
7169;SDS011;3626;42.656;23.312;2023-10-08T00:12:13;14.78;;;5.74;;
7169;SDS011;3626;42.656;23.312;2023-10-08T00:12:21;14.85;;;5.78;;
7169;SDS011;3626;42.656;23.312;2023-10-08T00:12:27;14.48;;;6.05;;
7169;SDS011;3626;42.656;23.312;2023-10-08T00:12:34;14.20;;;6.08;;
7169;SDS011;3626;42.656;23.312;2023-10-08T00:12:40;14.63;;;6.05;;
7169;SDS011;3626;42.656;23.312;2023-10-08T00:12:45;15.10;;;6.20;;
7169;SDS011;3626;42.656;23.312;2023-10-08T00:12:52;15.70;;;6.07;;
7169;SDS011;3626;42.656;23.312;2023-10-08T00:12:58;16.02;;;5.85;;
7169;SDS011;3626;42.656;23.312;2023-10-08T00:13:04;17.25;;;5.70;;
7169;SDS011;3626;42.656;23.312;2023-10-08T00:13:13;16.60;;;5.50;;
7169;SDS011;3626;42.656;23.312;2023-10-08T00:13:20;15.67;;;5.36;;
7169;SDS011;3626;42.656;23.312;2023-10-08T00:13:28;15.45;;;5.10;;
7169;SDS011;3626;42.656;23.312;2023-10-08T00:13:34;15.87;;;5.13;;
7169;SDS011;3626;42.656;23.312;2023-10-08T00:13:45;15.31;;;4.92;;
7169;SDS011;3626;42.656;23.312;2023-10-08T00:13:53;15.30;;;5.03;;
7169;SDS011;3626;42.656;23.312;2023-10-08T00:14:01;13.00;;;5.30;;
7169;SDS011;3626;42.656;23.312;2023-10-08T00:14:10;13.76;;;5.39;;
7169;SDS011;3626;42.656;23.312;2023-10-08T00:14:15;15.80;;;5.47;;
7169;SDS011;3626;42.656;23.312;2023-10-08T00:14:26;16.01;;;5.77;;
7169;SDS011;3626;42.656;23.312;2023-10-08T00:14:33;16.80;;;5.96;;
7169;SDS011;3626;42.656;23.312;2023-10-08T00:14:48;16.65;;;6.10;;
7169;SDS011;3626;42.656;23.312;2023-10-08T00:14:54;16.00;;;5.93;;
7169;SDS011;3626;42.656;23.312;2023-10-08T00:15:00;15.88;;;5.85;;
7169;SDS011;3626;42.656;23.312;2023-10-08T00:15:06;15.80;;;5.70;;
7169;SDS011;3626;42.656;23.312;2023-10-08T00:15:15;14.04;;;5.60;;
7169;SDS011;3626;42.656;23.312;2023-10-08T00:15:22;14.53;;;5.37;;
7169;SDS011;3626;42.656;23.312;2023-10-08T00:15:30;12.93;;;4.92;;
7169;SDS011;3626;42.656;23.312;2023-10-08T00:15:37;13.12;;;4.90;;
7169;SDS011;3626;42.656;23.312;2023-10-08T00:15:46;12.73;;;4.87;;
7169;SDS011;3626;42.656;23.312;2023-10-08T00:15:57;13.03;;;4.80;;
7169;SDS011;3626;42.656;23.312;2023-10-08T00:16:03;13.73;;;4.72;;
7169;SDS011;3626;42.656;23.312;2023-10-08T00:16:14;12.62;;;4.73;;
7169;SDS011;3626;42.656;23.312;2023-10-08T00:16:21;10.87;;;4.70;;
7169;SDS011;3626;42.656;23.312;2023-10-08T00:16:27;11.25;;;4.65;;
7169;SDS011;3626;42.656;23.312;2023-10-08T00:16:33;11.40;;;4.77;;
7169;SDS011;3626;42.656;23.312;2023-10-08T00:16:39;10.88;;;4.60;;
7169;SDS011;3626;42.656;23.312;2023-10-08T00:16:46;11.24;;;4.52;;
7169;SDS011;3626;42.656;23.312;2023-10-08T00:16:55;11.07;;;4.54;;
7169;SDS011;3626;42.656;23.312;2023-10-08T00:17:01;10.90;;;4.50;;
7169;SDS011;3626;42.656;23.312;2023-10-08T00:17:08;10.84;;;4.52;;
7169;SDS011;3626;42.656;23.312;2023-10-08T00:17:16;10.83;;;4.42;;
7169;SDS011;3626;42.656;23.312;2023-10-08T00:17:22;11.67;;;4.53;;
7169;SDS011;3626;42.656;23.312;2023-10-08T00:17:28;11.95;;;4.70;;
7169;SDS011;3626;42.656;23.312;2023-10-08T00:17:34;12.53;;;4.70;;
7169;SDS011;3626;42.656;23.312;2023-10-08T00:17:40;14.67;;;4.90;;
7169;SDS011;3626;42.656;23.312;2023-10-08T00:17:47;14.32;;;4.98;;
7169;SDS011;3626;42.656;23.312;2023-10-08T00:17:54;13.70;;;5.00;;
7169;SDS011;3626;42.656;23.312;2023-10-08T00:18:00;12.90;;;5.00;;
7169;SDS011;3626;42.656;23.312;2023-10-08T00:18:06;13.43;;;5.00;;
7169;SDS011;3626;42.656;23.312;2023-10-08T00:18:12;13.85;;;5.03;;
7169;SDS011;3626;42.656;23.312;2023-10-08T00:18:20;14.23;;;5.15;;
7169;SDS011;3626;42.656;23.312;2023-10-08T00:18:27;14.12;;;5.22;;
7169;SDS011;3626;42.656;23.312;2023-10-08T00:18:33;14.82;;;5.30;;
7169;SDS011;3626;42.656;23.312;2023-10-08T00:18:39;13.60;;;5.40;;
7169;SDS011;3626;42.656;23.312;2023-10-08T00:18:47;13.40;;;5.35;;
7169;SDS011;3626;42.656;23.312;2023-10-08T00:18:54;13.46;;;5.32;;
7169;SDS011;3626;42.656;23.312;2023-10-08T00:19:05;13.39;;;5.40;;
7169;SDS011;3626;42.656;23.312;2023-10-08T00:19:18;12.30;;;5.28;;
7169;SDS011;3626;42.656;23.312;2023-10-08T00:19:23;12.30;;;5.20;;
7169;SDS011;3626;42.656;23.312;2023-10-08T00:19:29;11.90;;;5.00;;
7169;SDS011;3626;42.656;23.312;2023-10-08T00:19:41;10.52;;;4.71;;
7169;SDS011;3626;42.656;23.312;2023-10-08T00:19:48;10.40;;;4.53;;
7169;SDS011;3626;42.656;23.312;2023-10-08T00:19:57;10.23;;;4.59;;
7169;SDS011;3626;42.656;23.312;2023-10-08T00:20:06;10.90;;;4.76;;
7169;SDS011;3626;42.656;23.312;2023-10-08T00:20:13;11.10;;;4.70;;
7169;SDS011;3626;42.656;23.312;2023-10-08T00:20:31;10.06;;;4.55;;
7169;SDS011;3626;42.656;23.312;2023-10-08T00:20:48;10.70;;;4.63;;
7169;SDS011;3626;42.656;23.312;2023-10-08T00:21:00;12.32;;;4.70;;
7169;SDS011;3626;42.656;23.312;2023-10-08T00:21:21;12.36;;;4.78;;
7169;SDS011;3626;42.656;23.312;2023-10-08T00:21:31;12.97;;;4.87;;
7169;SDS011;3626;42.656;23.312;2023-10-08T00:21:39;12.07;;;4.90;;
7169;SDS011;3626;42.656;23.312;2023-10-08T00:21:49;11.96;;;4.84;;
7169;SDS011;3626;42.656;23.312;2023-10-08T00:21:58;12.32;;;4.75;;
7169;SDS011;3626;42.656;23.312;2023-10-08T00:22:09;11.85;;;4.43;;
7169;SDS011;3626;42.656;23.312;2023-10-08T00:22:17;11.63;;;4.28;;
7169;SDS011;3626;42.656;23.312;2023-10-08T00:22:23;11.90;;;4.40;;
7169;SDS011;3626;42.656;23.312;2023-10-08T00:22:30;10.70;;;4.33;;
7169;SDS011;3626;42.656;23.312;2023-10-08T00:22:41;9.64;;;4.07;;
7169;SDS011;3626;42.656;23.312;2023-10-08T00:22:46;8.65;;;3.92;;
7169;SDS011;3626;42.656;23.312;2023-10-08T00:22:52;8.43;;;4.03;;
7169;SDS011;3626;42.656;23.312;2023-10-08T00:23:00;9.00;;;4.20;;
7169;SDS011;3626;42.656;23.312;2023-10-08T00:23:07;9.93;;;4.47;;
7169;SDS011;3626;42.656;23.312;2023-10-08T00:23:14;10.48;;;4.50;;
7169;SDS011;3626;42.656;23.312;2023-10-08T00:23:22;10.17;;;4.40;;
7169;SDS011;3626;42.656;23.312;2023-10-08T00:23:30;10.10;;;4.30;;
7169;SDS011;3626;42.656;23.312;2023-10-08T00:23:39;10.40;;;4.40;;
7169;SDS011;3626;42.656;23.312;2023-10-08T00:23:47;11.42;;;4.50;;
7169;SDS011;3626;42.656;23.312;2023-10-08T00:23:57;10.61;;;4.22;;
7169;SDS011;3626;42.656;23.312;2023-10-08T00:24:03;10.52;;;4.03;;
7169;SDS011;3626;42.656;23.312;2023-10-08T00:24:11;11.97;;;4.10;;
7169;SDS011;3626;42.656;23.312;2023-10-08T00:24:17;12.70;;;4.20;;
7169;SDS011;3626;42.656;23.312;2023-10-08T00:24:23;13.10;;;4.15;;
7169;SDS011;3626;42.656;23.312;2023-10-08T00:24:32;13.17;;;4.30;;
7169;SDS011;3626;42.656;23.312;2023-10-08T00:24:38;13.24;;;4.30;;
7169;SDS011;3626;42.656;23.312;2023-10-08T00:24:46;12.42;;;4.33;;
7169;SDS011;3626;42.656;23.312;2023-10-08T00:24:54;12.50;;;4.40;;
7169;SDS011;3626;42.656;23.312;2023-10-08T00:25:03;11.53;;;4.43;;
7169;SDS011;3626;42.656;23.312;2023-10-08T00:25:16;11.21;;;4.49;;
7169;SDS011;3626;42.656;23.312;2023-10-08T00:25:22;10.83;;;4.77;;
7169;SDS011;3626;42.656;23.312;2023-10-08T00:25:29;12.30;;;4.90;;
7169;SDS011;3626;42.656;23.312;2023-10-08T00:25:39;12.90;;;4.97;;
7169;SDS011;3626;42.656;23.312;2023-10-08T00:25:48;13.99;;;5.15;;
7169;SDS011;3626;42.656;23.312;2023-10-08T00:25:55;14.58;;;5.36;;
7169;SDS011;3626;42.656;23.312;2023-10-08T00:26:03;15.47;;;5.47;;
7169;SDS011;3626;42.656;23.312;2023-10-08T00:26:09;14.13;;;5.43;;
7169;SDS011;3626;42.656;23.312;2023-10-08T00:26:15;13.60;;;5.38;;
7169;SDS011;3626;42.656;23.312;2023-10-08T00:26:25;13.20;;;5.30;;
7169;SDS011;3626;42.656;23.312;2023-10-08T00:26:32;12.50;;;5.40;;
7169;SDS011;3626;42.656;23.312;2023-10-08T00:26:40;12.70;;;5.40;;
7169;SDS011;3626;42.656;23.312;2023-10-08T00:26:46;12.05;;;5.40;;
7169;SDS011;3626;42.656;23.312;2023-10-08T00:26:52;12.73;;;5.40;;
7169;SDS011;3626;42.656;23.312;2023-10-08T00:26:59;13.00;;;5.43;;
7169;SDS011;3626;42.656;23.312;2023-10-08T00:27:05;12.98;;;5.45;;
7169;SDS011;3626;42.656;23.312;2023-10-08T00:27:11;13.73;;;5.60;;
7169;SDS011;3626;42.656;23.312;2023-10-08T00:27:20;14.28;;;5.75;;
7169;SDS011;3626;42.656;23.312;2023-10-08T00:27:27;14.28;;;5.62;;
7169;SDS011;3626;42.656;23.312;2023-10-08T00:27:32;14.07;;;5.57;;
7169;SDS011;3626;42.656;23.312;2023-10-08T00:27:44;13.58;;;5.50;;
7169;SDS011;3626;42.656;23.312;2023-10-08T00:27:50;13.43;;;5.50;;
7169;SDS011;3626;42.656;23.312;2023-10-08T00:27:56;12.63;;;5.50;;
7169;SDS011;3626;42.656;23.312;2023-10-08T00:28:02;12.90;;;5.50;;
7169;SDS011;3626;42.656;23.312;2023-10-08T00:28:08;13.07;;;5.57;;
7169;SDS011;3626;42.656;23.312;2023-10-08T00:28:17;13.37;;;5.53;;
7169;SDS011;3626;42.656;23.312;2023-10-08T00:28:23;13.63;;;5.60;;
7169;SDS011;3626;42.656;23.312;2023-10-08T00:28:30;14.40;;;5.73;;
7169;SDS011;3626;42.656;23.312;2023-10-08T00:28:36;15.10;;;6.03;;
7169;SDS011;3626;42.656;23.312;2023-10-08T00:28:45;15.77;;;6.30;;
7169;SDS011;3626;42.656;23.312;2023-10-08T00:28:55;15.77;;;6.27;;
7169;SDS011;3626;42.656;23.312;2023-10-08T00:29:02;15.81;;;6.29;;
7169;SDS011;3626;42.656;23.312;2023-10-08T00:29:11;16.29;;;6.20;;
7169;SDS011;3626;42.656;23.312;2023-10-08T00:29:26;15.13;;;6.00;;
7169;SDS011;3626;42.656;23.312;2023-10-08T00:29:32;14.57;;;5.90;;
7169;SDS011;3626;42.656;23.312;2023-10-08T00:29:38;14.35;;;5.80;;
7169;SDS011;3626;42.656;23.312;2023-10-08T00:29:45;14.00;;;5.60;;
7169;SDS011;3626;42.656;23.312;2023-10-08T00:29:52;15.68;;;5.80;;
7169;SDS011;3626;42.656;23.312;2023-10-08T00:29:58;16.58;;;5.90;;
7169;SDS011;3626;42.656;23.312;2023-10-08T00:30:06;15.92;;;6.08;;
7169;SDS011;3626;42.656;23.312;2023-10-08T00:30:23;16.77;;;6.24;;
7169;SDS011;3626;42.656;23.312;2023-10-08T00:30:28;18.65;;;6.57;;
7169;SDS011;3626;42.656;23.312;2023-10-08T00:30:37;18.25;;;6.62;;
7169;SDS011;3626;42.656;23.312;2023-10-08T00:30:46;18.75;;;6.69;;
7169;SDS011;3626;42.656;23.312;2023-10-08T00:30:53;16.70;;;6.40;;
7169;SDS011;3626;42.656;23.312;2023-10-08T00:31:01;16.35;;;6.40;;
7169;SDS011;3626;42.656;23.312;2023-10-08T00:31:11;16.03;;;6.20;;
7169;SDS011;3626;42.656;23.312;2023-10-08T00:31:17;14.45;;;5.95;;
7169;SDS011;3626;42.656;23.312;2023-10-08T00:31:23;13.80;;;5.80;;
7169;SDS011;3626;42.656;23.312;2023-10-08T00:31:31;13.13;;;5.57;;
7169;SDS011;3626;42.656;23.312;2023-10-08T00:31:45;12.48;;;5.47;;
7169;SDS011;3626;42.656;23.312;2023-10-08T00:31:52;11.44;;;5.44;;
7169;SDS011;3626;42.656;23.312;2023-10-08T00:32:02;11.00;;;5.29;;
7169;SDS011;3626;42.656;23.312;2023-10-08T00:32:16;10.63;;;5.39;;
7169;SDS011;3626;42.656;23.312;2023-10-08T00:32:22;11.07;;;5.50;;
7169;SDS011;3626;42.656;23.312;2023-10-08T00:32:28;11.23;;;5.60;;
7169;SDS011;3626;42.656;23.312;2023-10-08T00:32:33;11.43;;;5.60;;
7169;SDS011;3626;42.656;23.312;2023-10-08T00:32:39;11.77;;;5.68;;
7169;SDS011;3626;42.656;23.312;2023-10-08T00:32:45;12.33;;;5.80;;
7169;SDS011;3626;42.656;23.312;2023-10-08T00:32:50;13.15;;;5.82;;
7169;SDS011;3626;42.656;23.312;2023-10-08T00:32:56;14.95;;;5.97;;
7169;SDS011;3626;42.656;23.312;2023-10-08T00:33:02;15.75;;;6.00;;
7169;SDS011;3626;42.656;23.312;2023-10-08T00:33:09;18.67;;;6.00;;
7169;SDS011;3626;42.656;23.312;2023-10-08T00:33:16;18.17;;;5.83;;
7169;SDS011;3626;42.656;23.312;2023-10-08T00:33:22;17.65;;;5.80;;
7169;SDS011;3626;42.656;23.312;2023-10-08T00:33:29;18.30;;;5.80;;
7169;SDS011;3626;42.656;23.312;2023-10-08T00:33:35;18.63;;;5.80;;
7169;SDS011;3626;42.656;23.312;2023-10-08T00:33:41;18.73;;;5.70;;
7169;SDS011;3626;42.656;23.312;2023-10-08T00:33:49;18.47;;;5.55;;
7169;SDS011;3626;42.656;23.312;2023-10-08T00:33:55;17.13;;;5.50;;
7169;SDS011;3626;42.656;23.312;2023-10-08T00:34:01;16.00;;;5.37;;
7169;SDS011;3626;42.656;23.312;2023-10-08T00:34:10;13.50;;;5.30;;
7169;SDS011;3626;42.656;23.312;2023-10-08T00:34:17;13.97;;;5.50;;
7169;SDS011;3626;42.656;23.312;2023-10-08T00:34:24;14.42;;;5.56;;
7169;SDS011;3626;42.656;23.312;2023-10-08T00:34:32;13.80;;;5.67;;
7169;SDS011;3626;42.656;23.312;2023-10-08T00:34:38;13.70;;;5.80;;
7169;SDS011;3626;42.656;23.312;2023-10-08T00:34:46;13.09;;;5.90;;
7169;SDS011;3626;42.656;23.312;2023-10-08T00:34:52;12.75;;;5.78;;
7169;SDS011;3626;42.656;23.312;2023-10-08T00:35:00;12.48;;;5.70;;
7169;SDS011;3626;42.656;23.312;2023-10-08T00:35:06;12.10;;;5.57;;
7169;SDS011;3626;42.656;23.312;2023-10-08T00:35:16;11.70;;;5.43;;
7169;SDS011;3626;42.656;23.312;2023-10-08T00:35:25;11.46;;;5.33;;
7169;SDS011;3626;42.656;23.312;2023-10-08T00:35:31;10.80;;;5.20;;
7169;SDS011;3626;42.656;23.312;2023-10-08T00:35:37;10.60;;;5.00;;
7169;SDS011;3626;42.656;23.312;2023-10-08T00:35:44;11.42;;;5.07;;
7169;SDS011;3626;42.656;23.312;2023-10-08T00:35:49;12.47;;;5.00;;
7169;SDS011;3626;42.656;23.312;2023-10-08T00:35:55;13.13;;;5.10;;
7169;SDS011;3626;42.656;23.312;2023-10-08T00:36:01;13.75;;;5.22;;
7169;SDS011;3626;42.656;23.312;2023-10-08T00:36:22;13.56;;;5.30;;
7169;SDS011;3626;42.656;23.312;2023-10-08T00:36:29;13.03;;;5.23;;
7169;SDS011;3626;42.656;23.312;2023-10-08T00:36:34;12.90;;;5.30;;
7169;SDS011;3626;42.656;23.312;2023-10-08T00:36:40;12.73;;;5.20;;
7169;SDS011;3626;42.656;23.312;2023-10-08T00:36:47;10.90;;;5.20;;
7169;SDS011;3626;42.656;23.312;2023-10-08T00:36:54;10.04;;;5.10;;
7169;SDS011;3626;42.656;23.312;2023-10-08T00:37:00;9.23;;;5.03;;
7169;SDS011;3626;42.656;23.312;2023-10-08T00:37:06;9.68;;;4.90;;
7169;SDS011;3626;42.656;23.312;2023-10-08T00:37:14;10.30;;;4.90;;
7169;SDS011;3626;42.656;23.312;2023-10-08T00:37:19;10.70;;;4.90;;
7169;SDS011;3626;42.656;23.312;2023-10-08T00:37:28;10.76;;;4.99;;
7169;SDS011;3626;42.656;23.312;2023-10-08T00:37:34;10.67;;;4.93;;
7169;SDS011;3626;42.656;23.312;2023-10-08T00:37:40;10.55;;;4.82;;
7169;SDS011;3626;42.656;23.312;2023-10-08T00:37:46;10.18;;;4.80;;
7169;SDS011;3626;42.656;23.312;2023-10-08T00:37:53;11.16;;;4.90;;
7169;SDS011;3626;42.656;23.312;2023-10-08T00:37:59;12.43;;;4.90;;
7169;SDS011;3626;42.656;23.312;2023-10-08T00:38:05;12.00;;;4.90;;
7169;SDS011;3626;42.656;23.312;2023-10-08T00:38:19;11.54;;;4.81;;
7169;SDS011;3626;42.656;23.312;2023-10-08T00:38:25;11.82;;;4.75;;
7169;SDS011;3626;42.656;23.312;2023-10-08T00:38:37;11.82;;;4.57;;
7169;SDS011;3626;42.656;23.312;2023-10-08T00:38:49;12.05;;;4.63;;
7169;SDS011;3626;42.656;23.312;2023-10-08T00:38:55;10.80;;;4.70;;
7169;SDS011;3626;42.656;23.312;2023-10-08T00:39:05;10.70;;;4.75;;
7169;SDS011;3626;42.656;23.312;2023-10-08T00:39:15;10.73;;;4.80;;
7169;SDS011;3626;42.656;23.312;2023-10-08T00:39:27;11.43;;;4.64;;
7169;SDS011;3626;42.656;23.312;2023-10-08T00:39:39;12.14;;;4.69;;
7169;SDS011;3626;42.656;23.312;2023-10-08T00:39:45;13.17;;;4.67;;
7169;SDS011;3626;42.656;23.312;2023-10-08T00:39:51;13.07;;;4.60;;
7169;SDS011;3626;42.656;23.312;2023-10-08T00:39:57;12.57;;;4.43;;
7169;SDS011;3626;42.656;23.312;2023-10-08T00:40:03;12.10;;;4.32;;
7169;SDS011;3626;42.656;23.312;2023-10-08T00:40:16;11.86;;;4.30;;
7169;SDS011;3626;42.656;23.312;2023-10-08T00:40:35;11.50;;;4.44;;
7169;SDS011;3626;42.656;23.312;2023-10-08T00:40:43;11.14;;;4.28;;
7169;SDS011;3626;42.656;23.312;2023-10-08T00:40:50;10.78;;;4.30;;
7169;SDS011;3626;42.656;23.312;2023-10-08T00:41:00;11.43;;;4.47;;
7169;SDS011;3626;42.656;23.312;2023-10-08T00:41:06;11.77;;;4.43;;
7169;SDS011;3626;42.656;23.312;2023-10-08T00:41:12;12.05;;;4.50;;
7169;SDS011;3626;42.656;23.312;2023-10-08T00:41:19;11.00;;;4.58;;
7169;SDS011;3626;42.656;23.312;2023-10-08T00:41:26;11.46;;;4.86;;
7169;SDS011;3626;42.656;23.312;2023-10-08T00:41:33;10.45;;;5.00;;
7169;SDS011;3626;42.656;23.312;2023-10-08T00:41:40;9.93;;;4.90;;
7169;SDS011;3626;42.656;23.312;2023-10-08T00:41:48;10.60;;;4.90;;
7169;SDS011;3626;42.656;23.312;2023-10-08T00:41:55;10.78;;;4.92;;
7169;SDS011;3626;42.656;23.312;2023-10-08T00:42:03;10.17;;;4.80;;
7169;SDS011;3626;42.656;23.312;2023-10-08T00:42:11;9.98;;;4.85;;
7169;SDS011;3626;42.656;23.312;2023-10-08T00:42:18;9.80;;;4.80;;
7169;SDS011;3626;42.656;23.312;2023-10-08T00:42:23;9.73;;;4.55;;
7169;SDS011;3626;42.656;23.312;2023-10-08T00:42:30;9.77;;;4.40;;
7169;SDS011;3626;42.656;23.312;2023-10-08T00:42:37;10.07;;;4.40;;
7169;SDS011;3626;42.656;23.312;2023-10-08T00:42:50;9.51;;;4.35;;
7169;SDS011;3626;42.656;23.312;2023-10-08T00:43:02;9.45;;;4.20;;
7169;SDS011;3626;42.656;23.312;2023-10-08T00:43:32;9.64;;;4.21;;
7169;SDS011;3626;42.656;23.312;2023-10-08T00:43:38;9.32;;;4.15;;
7169;SDS011;3626;42.656;23.312;2023-10-08T00:43:44;9.37;;;4.33;;
7169;SDS011;3626;42.656;23.312;2023-10-08T00:43:50;9.40;;;4.30;;
7169;SDS011;3626;42.656;23.312;2023-10-08T00:43:56;9.23;;;4.40;;
7169;SDS011;3626;42.656;23.312;2023-10-08T00:44:06;9.75;;;4.53;;
7169;SDS011;3626;42.656;23.312;2023-10-08T00:44:13;11.70;;;4.57;;
7169;SDS011;3626;42.656;23.312;2023-10-08T00:44:21;12.77;;;4.70;;
7169;SDS011;3626;42.656;23.312;2023-10-08T00:44:34;12.51;;;4.61;;
7169;SDS011;3626;42.656;23.312;2023-10-08T00:44:46;12.76;;;4.79;;
7169;SDS011;3626;42.656;23.312;2023-10-08T00:44:53;12.88;;;4.80;;
7169;SDS011;3626;42.656;23.312;2023-10-08T00:44:59;13.70;;;4.82;;
7169;SDS011;3626;42.656;23.312;2023-10-08T00:45:08;13.20;;;4.80;;
7169;SDS011;3626;42.656;23.312;2023-10-08T00:45:18;10.82;;;4.74;;
7169;SDS011;3626;42.656;23.312;2023-10-08T00:45:24;10.80;;;4.70;;
7169;SDS011;3626;42.656;23.312;2023-10-08T00:45:30;10.48;;;4.68;;
7169;SDS011;3626;42.656;23.312;2023-10-08T00:45:35;10.38;;;4.57;;
7169;SDS011;3626;42.656;23.312;2023-10-08T00:45:45;10.03;;;4.43;;
7169;SDS011;3626;42.656;23.312;2023-10-08T00:45:55;10.60;;;4.47;;
7169;SDS011;3626;42.656;23.312;2023-10-08T00:46:04;9.39;;;4.30;;
7169;SDS011;3626;42.656;23.312;2023-10-08T00:46:23;9.11;;;4.14;;
7169;SDS011;3626;42.656;23.312;2023-10-08T00:46:31;8.75;;;4.10;;
7169;SDS011;3626;42.656;23.312;2023-10-08T00:46:38;9.60;;;4.20;;
7169;SDS011;3626;42.656;23.312;2023-10-08T00:46:47;9.73;;;4.06;;
7169;SDS011;3626;42.656;23.312;2023-10-08T00:46:53;8.88;;;3.95;;
7169;SDS011;3626;42.656;23.312;2023-10-08T00:47:01;8.90;;;4.00;;
7169;SDS011;3626;42.656;23.312;2023-10-08T00:47:09;9.50;;;4.16;;
7169;SDS011;3626;42.656;23.312;2023-10-08T00:47:17;9.82;;;4.40;;
7169;SDS011;3626;42.656;23.312;2023-10-08T00:47:26;9.64;;;4.34;;